Log Cabin, Texas
Current Conditions -  °F | °C
As of 9:55 AM on Thursday 30 Oct 2014 (Local Time) from KF44 Reporting Station
Clear Clear  
Wind Chill: 59°   Ceiling: Unl
Heat Index: 59°   Visibility: 10mi
Dew Point: 48°   Wind: 3mph
Humidity: 67%   Direction: 160°SSE
Pressure: 30.18"   Gusts: NA
Location:  32.115°N, 95.9849°W
Report Text: KF44 301455Z AUTO 16003KT 10SM CLR 15/09 A3018 RMK AO2
Loading
Personal Weather Stations






























Interactive Weather Map
Tropical Storm Tracking
New forecast layout! Learn more

10-Day Weather Forecast

Advertisements
Track Severe Weather on mobile